sensor_id;sensor_type;location;lat;lon;timestamp;pressure;altitude;pressure_sealevel;temperature;humidity
10646;BME280;5371;49.782;9.932;2023-02-20T00:00:09;100639.38;;;8.02;100.00
10646;BME280;5371;49.782;9.932;2023-02-20T00:02:36;100648.53;;;7.61;100.00
10646;BME280;5371;49.782;9.932;2023-02-20T00:05:04;100646.31;;;7.48;100.00
10646;BME280;5371;49.782;9.932;2023-02-20T00:07:31;100641.69;;;7.84;100.00
10646;BME280;5371;49.782;9.932;2023-02-20T00:09:58;100628.88;;;7.52;100.00
10646;BME280;5371;49.782;9.932;2023-02-20T00:12:25;100642.84;;;7.76;100.00
10646;BME280;5371;49.782;9.932;2023-02-20T00:14:53;100638.53;;;7.47;100.00
10646;BME280;5371;49.782;9.932;2023-02-20T00:17:20;100617.56;;;7.53;100.00
10646;BME280;5371;49.782;9.932;2023-02-20T00:19:47;100630.56;;;7.53;100.00
10646;BME280;5371;49.782;9.932;2023-02-20T00:22:14;100628.88;;;7.78;100.00
10646;BME280;5371;49.782;9.932;2023-02-20T00:24:41;100636.78;;;7.47;100.00
10646;BME280;5371;49.782;9.932;2023-02-20T00:27:08;100623.94;;;7.43;100.00
10646;BME280;5371;49.782;9.932;2023-02-20T00:29:35;100625.59;;;7.73;100.00
10646;BME280;5371;49.782;9.932;2023-02-20T00:32:04;100612.59;;;7.45;100.00
10646;BME280;5371;49.782;9.932;2023-02-20T00:34:31;100597.72;;;7.49;100.00
10646;BME280;5371;49.782;9.932;2023-02-20T00:36:58;100600.75;;;7.63;100.00
10646;BME280;5371;49.782;9.932;2023-02-20T00:39:25;100607.69;;;7.64;100.00
10646;BME280;5371;49.782;9.932;2023-02-20T00:41:52;100609.31;;;7.39;100.00
10646;BME280;5371;49.782;9.932;2023-02-20T00:44:20;100615.78;;;7.27;100.00
10646;BME280;5371;49.782;9.932;2023-02-20T00:46:47;100603.91;;;7.19;100.00
10646;BME280;5371;49.782;9.932;2023-02-20T00:49:16;100611.19;;;7.35;100.00
10646;BME280;5371;49.782;9.932;2023-02-20T00:51:47;100602.09;;;7.21;100.00
10646;BME280;5371;49.782;9.932;2023-02-20T00:54:14;100604.53;;;7.27;100.00
10646;BME280;5371;49.782;9.932;2023-02-20T00:56:41;100593.09;;;7.31;100.00
10646;BME280;5371;49.782;9.932;2023-02-20T00:59:08;100597.22;;;7.38;100.00
10646;BME280;5371;49.782;9.932;2023-02-20T01:01:35;100593.22;;;7.28;100.00
10646;BME280;5371;49.782;9.932;2023-02-20T01:04:02;100608.44;;;7.40;100.00
10646;BME280;5371;49.782;9.932;2023-02-20T01:06:30;100607.41;;;7.45;100.00
10646;BME280;5371;49.782;9.932;2023-02-20T01:08:58;100612.22;;;7.30;100.00
10646;BME280;5371;49.782;9.932;2023-02-20T01:11:24;100620.63;;;7.38;100.00
10646;BME280;5371;49.782;9.932;2023-02-20T01:13:51;100613.59;;;7.41;100.00
10646;BME280;5371;49.782;9.932;2023-02-20T01:16:18;100618.38;;;7.55;100.00
10646;BME280;5371;49.782;9.932;2023-02-20T01:18:48;100610.50;;;7.57;100.00
10646;BME280;5371;49.782;9.932;2023-02-20T01:21:16;100610.97;;;7.41;100.00
10646;BME280;5371;49.782;9.932;2023-02-20T01:23:45;100614.03;;;7.56;100.00
10646;BME280;5371;49.782;9.932;2023-02-20T01:26:12;100615.84;;;7.52;100.00
10646;BME280;5371;49.782;9.932;2023-02-20T01:28:42;100617.81;;;7.45;100.00
10646;BME280;5371;49.782;9.932;2023-02-20T01:31:09;100616.28;;;7.38;100.00
10646;BME280;5371;49.782;9.932;2023-02-20T01:33:39;100609.81;;;7.24;100.00
10646;BME280;5371;49.782;9.932;2023-02-20T01:36:07;100611.63;;;7.20;100.00
10646;BME280;5371;49.782;9.932;2023-02-20T01:38:34;100608.06;;;7.24;100.00
10646;BME280;5371;49.782;9.932;2023-02-20T01:41:04;100601.44;;;7.14;100.00
10646;BME280;5371;49.782;9.932;2023-02-20T01:43:31;100594.00;;;7.30;100.00
10646;BME280;5371;49.782;9.932;2023-02-20T01:49:01;100598.13;;;7.09;100.00
10646;BME280;5371;49.782;9.932;2023-02-20T01:51:34;100592.31;;;7.01;100.00
10646;BME280;5371;49.782;9.932;2023-02-20T01:54:01;100593.00;;;7.06;100.00
10646;BME280;5371;49.782;9.932;2023-02-20T01:56:32;100585.19;;;7.07;100.00
10646;BME280;5371;49.782;9.932;2023-02-20T01:59:00;100590.34;;;7.09;100.00
10646;BME280;5371;49.782;9.932;2023-02-20T02:01:28;100588.75;;;7.03;100.00
10646;BME280;5371;49.782;9.932;2023-02-20T02:03:59;100583.66;;;7.00;100.00
10646;BME280;5371;49.782;9.932;2023-02-20T02:06:27;100585.25;;;7.04;100.00
10646;BME280;5371;49.782;9.932;2023-02-20T02:08:59;100580.44;;;7.20;100.00
10646;BME280;5371;49.782;9.932;2023-02-20T02:11:28;100579.84;;;7.10;100.00
10646;BME280;5371;49.782;9.932;2023-02-20T02:13:56;100571.28;;;7.08;100.00
10646;BME280;5371;49.782;9.932;2023-02-20T02:16:29;100558.97;;;7.13;100.00
10646;BME280;5371;49.782;9.932;2023-02-20T02:19:08;100555.75;;;7.33;100.00
10646;BME280;5371;49.782;9.932;2023-02-20T02:21:56;100559.25;;;7.32;100.00
10646;BME280;5371;49.782;9.932;2023-02-20T02:30:54;100576.19;;;7.72;100.00
10646;BME280;5371;49.782;9.932;2023-02-20T02:33:52;100579.44;;;7.78;100.00
10646;BME280;5371;49.782;9.932;2023-02-20T02:39:26;100566.56;;;7.47;100.00
10646;BME280;5371;49.782;9.932;2023-02-20T02:42:01;100563.31;;;7.41;100.00
10646;BME280;5371;49.782;9.932;2023-02-20T02:44:36;100561.44;;;7.46;100.00
10646;BME280;5371;49.782;9.932;2023-02-20T02:47:11;100551.78;;;7.22;100.00
10646;BME280;5371;49.782;9.932;2023-02-20T02:49:43;100537.09;;;7.21;100.00
10646;BME280;5371;49.782;9.932;2023-02-20T02:52:13;100538.53;;;7.29;100.00
10646;BME280;5371;49.782;9.932;2023-02-20T02:55:02;100542.72;;;7.35;100.00
10646;BME280;5371;49.782;9.932;2023-02-20T02:57:31;100536.78;;;7.30;100.00
10646;BME280;5371;49.782;9.932;2023-02-20T03:00:00;100545.03;;;7.44;100.00
10646;BME280;5371;49.782;9.932;2023-02-20T03:02:32;100547.50;;;7.47;100.00
10646;BME280;5371;49.782;9.932;2023-02-20T03:05:02;100547.66;;;7.42;100.00
10646;BME280;5371;49.782;9.932;2023-02-20T03:07:35;100545.19;;;7.38;100.00
10646;BME280;5371;49.782;9.932;2023-02-20T03:10:06;100545.06;;;7.42;100.00
10646;BME280;5371;49.782;9.932;2023-02-20T03:12:44;100551.03;;;7.46;100.00
10646;BME280;5371;49.782;9.932;2023-02-20T03:15:20;100541.50;;;7.19;100.00
10646;BME280;5371;49.782;9.932;2023-02-20T03:18:10;100545.44;;;7.02;100.00
10646;BME280;5371;49.782;9.932;2023-02-20T03:20:43;100549.88;;;6.71;100.00
10646;BME280;5371;49.782;9.932;2023-02-20T03:23:14;100545.44;;;7.02;100.00
10646;BME280;5371;49.782;9.932;2023-02-20T03:25:48;100550.47;;;6.81;100.00
10646;BME280;5371;49.782;9.932;2023-02-20T03:28:19;100545.63;;;6.68;100.00
10646;BME280;5371;49.782;9.932;2023-02-20T03:30:54;100544.66;;;6.42;100.00
10646;BME280;5371;49.782;9.932;2023-02-20T03:33:25;100543.16;;;6.64;100.00
10646;BME280;5371;49.782;9.932;2023-02-20T03:36:15;100549.78;;;6.74;100.00
10646;BME280;5371;49.782;9.932;2023-02-20T03:39:06;100551.56;;;6.43;100.00
10646;BME280;5371;49.782;9.932;2023-02-20T03:41:53;100537.88;;;6.67;100.00
10646;BME280;5371;49.782;9.932;2023-02-20T03:44:44;100541.44;;;6.64;100.00
10646;BME280;5371;49.782;9.932;2023-02-20T03:47:13;100536.44;;;6.57;100.00
10646;BME280;5371;49.782;9.932;2023-02-20T03:49:42;100540.50;;;6.65;100.00
10646;BME280;5371;49.782;9.932;2023-02-20T03:52:14;100533.66;;;6.33;100.00
10646;BME280;5371;49.782;9.932;2023-02-20T03:54:43;100527.59;;;6.64;100.00
10646;BME280;5371;49.782;9.932;2023-02-20T03:57:13;100534.72;;;6.56;100.00
10646;BME280;5371;49.782;9.932;2023-02-20T03:59:47;100536.78;;;6.45;100.00
10646;BME280;5371;49.782;9.932;2023-02-20T04:02:19;100541.53;;;6.60;100.00
10646;BME280;5371;49.782;9.932;2023-02-20T04:04:49;100546.47;;;6.69;100.00
10646;BME280;5371;49.782;9.932;2023-02-20T04:07:22;100545.84;;;6.61;100.00
10646;BME280;5371;49.782;9.932;2023-02-20T04:09:53;100542.34;;;6.31;100.00
10646;BME280;5371;49.782;9.932;2023-02-20T04:12:26;100551.00;;;6.31;100.00
10646;BME280;5371;49.782;9.932;2023-02-20T04:14:57;100547.69;;;6.26;100.00
10646;BME280;5371;49.782;9.932;2023-02-20T04:17:28;100542.25;;;6.35;100.00
10646;BME280;5371;49.782;9.932;2023-02-20T04:19:57;100555.75;;;6.47;100.00
10646;BME280;5371;49.782;9.932;2023-02-20T04:22:26;100562.59;;;6.51;100.00
10646;BME280;5371;49.782;9.932;2023-02-20T04:24:58;100560.34;;;6.06;100.00
10646;BME280;5371;49.782;9.932;2023-02-20T04:27:29;100553.63;;;5.99;100.00
10646;BME280;5371;49.782;9.932;2023-02-20T04:29:58;100572.69;;;5.98;100.00
10646;BME280;5371;49.782;9.932;2023-02-20T04:32:25;100561.31;;;6.02;100.00
10646;BME280;5371;49.782;9.932;2023-02-20T04:34:52;100571.59;;;6.07;100.00
10646;BME280;5371;49.782;9.932;2023-02-20T04:37:20;100579.75;;;6.25;100.00
10646;BME280;5371;49.782;9.932;2023-02-20T04:39:50;100572.50;;;6.04;100.00
10646;BME280;5371;49.782;9.932;2023-02-20T04:42:19;100570.81;;;6.03;100.00
10646;BME280;5371;49.782;9.932;2023-02-20T04:44:47;100565.94;;;6.23;100.00
10646;BME280;5371;49.782;9.932;2023-02-20T04:47:15;100557.03;;;6.32;100.00
10646;BME280;5371;49.782;9.932;2023-02-20T04:49:43;100555.31;;;6.32;100.00
10646;BME280;5371;49.782;9.932;2023-02-20T04:52:14;100564.47;;;6.46;100.00
10646;BME280;5371;49.782;9.932;2023-02-20T04:54:41;100571.06;;;6.56;100.00
10646;BME280;5371;49.782;9.932;2023-02-20T04:57:11;100556.28;;;6.28;100.00
10646;BME280;5371;49.782;9.932;2023-02-20T04:59:39;100575.75;;;6.12;100.00
10646;BME280;5371;49.782;9.932;2023-02-20T05:02:07;100571.25;;;6.50;100.00
10646;BME280;5371;49.782;9.932;2023-02-20T05:04:34;100587.09;;;6.41;100.00
10646;BME280;5371;49.782;9.932;2023-02-20T05:07:01;100579.31;;;6.41;100.00
10646;BME280;5371;49.782;9.932;2023-02-20T05:09:28;100584.94;;;6.25;100.00
10646;BME280;5371;49.782;9.932;2023-02-20T05:12:19;100583.41;;;6.18;100.00
10646;BME280;5371;49.782;9.932;2023-02-20T05:14:46;100585.66;;;6.30;100.00
10646;BME280;5371;49.782;9.932;2023-02-20T05:17:13;100577.63;;;6.38;100.00
10646;BME280;5371;49.782;9.932;2023-02-20T05:19:40;100587.75;;;6.49;100.00
10646;BME280;5371;49.782;9.932;2023-02-20T05:22:08;100586.91;;;6.47;100.00
10646;BME280;5371;49.782;9.932;2023-02-20T05:24:46;100583.94;;;6.29;100.00
10646;BME280;5371;49.782;9.932;2023-02-20T05:27:14;100578.50;;;6.38;100.00
10646;BME280;5371;49.782;9.932;2023-02-20T05:29:47;100573.66;;;6.26;100.00
10646;BME280;5371;49.782;9.932;2023-02-20T05:32:15;100575.09;;;6.04;100.00
10646;BME280;5371;49.782;9.932;2023-02-20T05:34:42;100573.91;;;6.17;100.00
10646;BME280;5371;49.782;9.932;2023-02-20T05:37:10;100569.47;;;5.88;100.00
10646;BME280;5371;49.782;9.932;2023-02-20T05:39:38;100564.50;;;6.12;100.00
10646;BME280;5371;49.782;9.932;2023-02-20T05:42:05;100568.66;;;5.85;100.00
10646;BME280;5371;49.782;9.932;2023-02-20T05:44:33;100573.00;;;5.83;100.00
10646;BME280;5371;49.782;9.932;2023-02-20T05:47:01;100564.00;;;5.99;100.00
10646;BME280;5371;49.782;9.932;2023-02-20T05:49:29;100560.56;;;6.29;100.00
10646;BME280;5371;49.782;9.932;2023-02-20T05:51:57;100558.53;;;6.10;100.00
10646;BME280;5371;49.782;9.932;2023-02-20T05:54:24;100564.34;;;5.84;100.00
10646;BME280;5371;49.782;9.932;2023-02-20T05:56:51;100563.91;;;6.02;100.00
10646;BME280;5371;49.782;9.932;2023-02-20T05:59:20;100562.06;;;6.07;100.00
10646;BME280;5371;49.782;9.932;2023-02-20T06:01:47;100561.84;;;5.81;100.00
10646;BME280;5371;49.782;9.932;2023-02-20T06:04:18;100563.28;;;5.92;100.00
10646;BME280;5371;49.782;9.932;2023-02-20T06:06:45;100559.56;;;5.69;100.00
10646;BME280;5371;49.782;9.932;2023-02-20T06:09:12;100563.56;;;5.82;100.00
10646;BME280;5371;49.782;9.932;2023-02-20T06:11:46;100566.50;;;6.02;100.00
10646;BME280;5371;49.782;9.932;2023-02-20T06:14:14;100561.97;;;6.10;100.00
10646;BME280;5371;49.782;9.932;2023-02-20T06:16:41;100568.31;;;6.00;100.00
10646;BME280;5371;49.782;9.932;2023-02-20T06:19:08;100560.34;;;6.68;100.00
10646;BME280;5371;49.782;9.932;2023-02-20T06:21:37;100579.19;;;6.45;100.00
10646;BME280;5371;49.782;9.932;2023-02-20T06:24:06;100573.56;;;6.29;100.00
10646;BME280;5371;49.782;9.932;2023-02-20T06:26:38;100595.72;;;6.43;100.00
10646;BME280;5371;49.782;9.932;2023-02-20T06:29:05;100592.16;;;6.76;100.00
10646;BME280;5371;49.782;9.932;2023-02-20T06:31:32;100575.31;;;6.89;100.00
10646;BME280;5371;49.782;9.932;2023-02-20T06:34:00;100571.28;;;7.08;100.00
10646;BME280;5371;49.782;9.932;2023-02-20T06:36:30;100569.56;;;7.07;100.00
10646;BME280;5371;49.782;9.932;2023-02-20T06:38:59;100570.94;;;6.62;100.00
10646;BME280;5371;49.782;9.932;2023-02-20T06:41:26;100572.50;;;6.97;100.00
10646;BME280;5371;49.782;9.932;2023-02-20T06:43:53;100566.41;;;6.07;100.00
10646;BME280;5371;49.782;9.932;2023-02-20T06:46:20;100562.84;;;6.72;100.00
10646;BME280;5371;49.782;9.932;2023-02-20T06:48:50;100568.38;;;6.60;100.00
10646;BME280;5371;49.782;9.932;2023-02-20T06:51:18;100560.22;;;6.43;100.00
10646;BME280;5371;49.782;9.932;2023-02-20T06:53:45;100563.41;;;6.20;100.00
10646;BME280;5371;49.782;9.932;2023-02-20T06:56:16;100559.75;;;6.58;100.00
10646;BME280;5371;49.782;9.932;2023-02-20T06:58:45;100574.84;;;6.46;100.00
10646;BME280;5371;49.782;9.932;2023-02-20T07:01:12;100574.97;;;6.72;100.00
10646;BME280;5371;49.782;9.932;2023-02-20T07:03:38;100576.69;;;6.42;100.00
10646;BME280;5371;49.782;9.932;2023-02-20T07:06:06;100560.34;;;6.68;100.00
10646;BME280;5371;49.782;9.932;2023-02-20T07:08:33;100566.66;;;6.28;100.00
10646;BME280;5371;49.782;9.932;2023-02-20T07:11:00;100552.91;;;6.85;100.00
10646;BME280;5371;49.782;9.932;2023-02-20T07:13:28;100564.13;;;6.87;100.00
10646;BME280;5371;49.782;9.932;2023-02-20T07:15:55;100560.19;;;7.02;100.00
10646;BME280;5371;49.782;9.932;2023-02-20T07:18:22;100564.44;;;6.76;100.00
10646;BME280;5371;49.782;9.932;2023-02-20T07:20:52;100567.59;;;7.43;100.00
10646;BME280;5371;49.782;9.932;2023-02-20T07:23:19;100567.63;;;7.14;100.00
10646;BME280;5371;49.782;9.932;2023-02-20T07:25:46;100571.13;;;7.67;100.00
10646;BME280;5371;49.782;9.932;2023-02-20T07:28:14;100566.25;;;7.83;100.00
10646;BME280;5371;49.782;9.932;2023-02-20T07:30:43;100561.53;;;8.45;100.00
10646;BME280;5371;49.782;9.932;2023-02-20T07:33:11;100554.47;;;8.22;100.00
10646;BME280;5371;49.782;9.932;2023-02-20T07:35:38;100560.50;;;8.49;100.00
10646;BME280;5371;49.782;9.932;2023-02-20T07:38:06;100567.41;;;7.74;100.00
10646;BME280;5371;49.782;9.932;2023-02-20T07:40:33;100568.09;;;8.55;100.00
10646;BME280;5371;49.782;9.932;2023-02-20T07:43:01;100562.25;;;9.39;100.00
10646;BME280;5371;49.782;9.932;2023-02-20T07:45:28;100568.31;;;9.61;100.00
10646;BME280;5371;49.782;9.932;2023-02-20T07:47:56;100565.41;;;9.89;100.00
10646;BME280;5371;49.782;9.932;2023-02-20T07:50:23;100557.22;;;9.34;100.00
10646;BME280;5371;49.782;9.932;2023-02-20T07:52:51;100543.16;;;9.17;100.00
10646;BME280;5371;49.782;9.932;2023-02-20T07:55:18;100546.94;;;9.73;100.00
10646;BME280;5371;49.782;9.932;2023-02-20T07:57:46;100550.59;;;9.48;100.00
10646;BME280;5371;49.782;9.932;2023-02-20T08:00:16;100549.94;;;9.21;100.00
10646;BME280;5371;49.782;9.932;2023-02-20T08:02:44;100555.72;;;8.84;100.00
10646;BME280;5371;49.782;9.932;2023-02-20T08:05:13;100562.88;;;9.88;100.00
10646;BME280;5371;49.782;9.932;2023-02-20T08:07:43;100558.16;;;8.42;100.00
10646;BME280;5371;49.782;9.932;2023-02-20T08:10:12;100554.25;;;9.00;100.00
10646;BME280;5371;49.782;9.932;2023-02-20T08:12:39;100562.75;;;8.58;100.00
10646;BME280;5371;49.782;9.932;2023-02-20T08:15:07;100561.81;;;8.61;100.00
10646;BME280;5371;49.782;9.932;2023-02-20T08:17:37;100565.13;;;8.41;100.00
10646;BME280;5371;49.782;9.932;2023-02-20T08:20:06;100558.66;;;8.98;100.00
10646;BME280;5371;49.782;9.932;2023-02-20T08:22:35;100561.53;;;8.69;100.00
10646;BME280;5371;49.782;9.932;2023-02-20T08:25:02;100557.47;;;9.50;100.00
10646;BME280;5371;49.782;9.932;2023-02-20T08:27:30;100554.81;;;9.08;100.00
10646;BME280;5371;49.782;9.932;2023-02-20T08:29:57;100555.97;;;10.07;100.00
10646;BME280;5371;49.782;9.932;2023-02-20T08:32:25;100554.75;;;9.94;100.00
10646;BME280;5371;49.782;9.932;2023-02-20T08:34:54;100557.50;;;10.11;100.00
10646;BME280;5371;49.782;9.932;2023-02-20T08:37:21;100559.38;;;10.48;100.00
10646;BME280;5371;49.782;9.932;2023-02-20T08:39:50;100546.66;;;10.79;100.00
10646;BME280;5371;49.782;9.932;2023-02-20T08:42:17;100538.88;;;10.39;100.00
10646;BME280;5371;49.782;9.932;2023-02-20T08:44:44;100536.63;;;9.49;100.00
10646;BME280;5371;49.782;9.932;2023-02-20T08:47:11;100541.72;;;10.34;100.00
10646;BME280;5371;49.782;9.932;2023-02-20T08:49:38;100538.97;;;9.97;100.00
10646;BME280;5371;49.782;9.932;2023-02-20T08:52:05;100528.81;;;9.91;100.00
10646;BME280;5371;49.782;9.932;2023-02-20T08:54:32;100521.53;;;10.38;100.00
10646;BME280;5371;49.782;9.932;2023-02-20T08:57:00;100520.03;;;10.12;100.00
10646;BME280;5371;49.782;9.932;2023-02-20T08:59:30;100525.47;;;10.28;100.00
10646;BME280;5371;49.782;9.932;2023-02-20T09:01:57;100516.84;;;9.65;100.00
10646;BME280;5371;49.782;9.932;2023-02-20T09:04:24;100516.16;;;8.96;100.00
10646;BME280;5371;49.782;9.932;2023-02-20T09:06:51;100518.19;;;9.53;100.00
10646;BME280;5371;49.782;9.932;2023-02-20T09:09:22;100529.97;;;9.42;100.00
10646;BME280;5371;49.782;9.932;2023-02-20T09:11:54;100521.22;;;8.55;100.00
10646;BME280;5371;49.782;9.932;2023-02-20T09:14:23;100513.25;;;8.82;100.00
10646;BME280;5371;49.782;9.932;2023-02-20T09:16:51;100518.75;;;8.96;100.00
10646;BME280;5371;49.782;9.932;2023-02-20T09:19:18;100527.81;;;9.73;100.00
10646;BME280;5371;49.782;9.932;2023-02-20T09:21:46;100510.91;;;9.39;100.00
10646;BME280;5371;49.782;9.932;2023-02-20T09:24:13;100522.59;;;9.31;100.00
10646;BME280;5371;49.782;9.932;2023-02-20T09:26:40;100530.50;;;10.51;100.00
10646;BME280;5371;49.782;9.932;2023-02-20T09:29:08;100515.13;;;10.45;100.00
10646;BME280;5371;49.782;9.932;2023-02-20T09:31:36;100521.25;;;8.99;100.00
10646;BME280;5371;49.782;9.932;2023-02-20T09:34:03;100504.84;;;9.81;100.00
10646;BME280;5371;49.782;9.932;2023-02-20T09:36:31;100524.22;;;9.75;100.00
10646;BME280;5371;49.782;9.932;2023-02-20T09:38:58;100506.09;;;9.09;100.00
10646;BME280;5371;49.782;9.932;2023-02-20T09:41:34;100512.03;;;9.56;100.00
10646;BME280;5371;49.782;9.932;2023-02-20T09:44:11;100498.69;;;9.20;100.00
10646;BME280;5371;49.782;9.932;2023-02-20T09:46:43;100497.25;;;9.95;100.00
10646;BME280;5371;49.782;9.932;2023-02-20T09:49:13;100484.75;;;9.83;100.00
10646;BME280;5371;49.782;9.932;2023-02-20T09:51:44;100496.41;;;10.92;100.00
10646;BME280;5371;49.782;9.932;2023-02-20T09:54:20;100487.13;;;10.66;100.00
10646;BME280;5371;49.782;9.932;2023-02-20T09:56:52;100483.41;;;11.43;100.00
10646;BME280;5371;49.782;9.932;2023-02-20T09:59:22;100489.78;;;11.38;100.00
10646;BME280;5371;49.782;9.932;2023-02-20T10:01:55;100477.84;;;11.67;100.00
10646;BME280;5371;49.782;9.932;2023-02-20T10:04:27;100466.31;;;12.21;98.77
10646;BME280;5371;49.782;9.932;2023-02-20T10:07:03;100471.34;;;11.05;100.00
10646;BME280;5371;49.782;9.932;2023-02-20T10:09:35;100466.53;;;10.96;100.00
10646;BME280;5371;49.782;9.932;2023-02-20T10:12:09;100472.41;;;11.01;100.00
10646;BME280;5371;49.782;9.932;2023-02-20T10:14:51;100472.59;;;10.79;100.00
10646;BME280;5371;49.782;9.932;2023-02-20T10:17:30;100460.03;;;11.21;100.00
10646;BME280;5371;49.782;9.932;2023-02-20T10:20:02;100462.44;;;11.26;100.00
10646;BME280;5371;49.782;9.932;2023-02-20T10:22:44;100464.31;;;11.76;100.00
10646;BME280;5371;49.782;9.932;2023-02-20T10:25:19;100449.41;;;12.11;98.98
10646;BME280;5371;49.782;9.932;2023-02-20T10:27:53;100460.06;;;11.73;100.00
10646;BME280;5371;49.782;9.932;2023-02-20T10:30:24;100455.06;;;11.34;100.00
10646;BME280;5371;49.782;9.932;2023-02-20T10:32:58;100452.34;;;12.69;94.57
10646;BME280;5371;49.782;9.932;2023-02-20T10:35:32;100435.81;;;12.67;94.03
10646;BME280;5371;49.782;9.932;2023-02-20T10:38:05;100436.88;;;14.69;78.81
10646;BME280;5371;49.782;9.932;2023-02-20T10:40:36;100433.94;;;15.27;75.95
10646;BME280;5371;49.782;9.932;2023-02-20T10:43:11;100432.69;;;13.96;81.51
10646;BME280;5371;49.782;9.932;2023-02-20T10:45:47;100429.31;;;13.65;83.55
10646;BME280;5371;49.782;9.932;2023-02-20T10:48:17;100417.19;;;14.34;79.35
10646;BME280;5371;49.782;9.932;2023-02-20T10:50:48;100420.13;;;14.15;79.66
10646;BME280;5371;49.782;9.932;2023-02-20T10:53:24;100413.94;;;15.25;72.91
10646;BME280;5371;49.782;9.932;2023-02-20T10:56:00;100418.25;;;12.38;88.98
10646;BME280;5371;49.782;9.932;2023-02-20T10:58:31;100413.75;;;14.19;77.60
10646;BME280;5371;49.782;9.932;2023-02-20T11:01:02;100404.13;;;14.60;75.31
10646;BME280;5371;49.782;9.932;2023-02-20T11:03:38;100409.03;;;15.06;72.55
10646;BME280;5371;49.782;9.932;2023-02-20T11:06:12;100405.66;;;14.22;76.99
10646;BME280;5371;49.782;9.932;2023-02-20T11:08:41;100399.22;;;13.41;80.19
10646;BME280;5371;49.782;9.932;2023-02-20T11:11:24;100398.31;;;12.02;87.49
10646;BME280;5371;49.782;9.932;2023-02-20T11:13:54;100387.88;;;13.10;81.83
10646;BME280;5371;49.782;9.932;2023-02-20T11:16:24;100376.06;;;13.47;79.22
10646;BME280;5371;49.782;9.932;2023-02-20T11:19:11;100372.31;;;13.07;81.98
10646;BME280;5371;49.782;9.932;2023-02-20T11:21:41;100359.22;;;14.08;77.45
10646;BME280;5371;49.782;9.932;2023-02-20T11:24:31;100350.75;;;15.38;69.93
10646;BME280;5371;49.782;9.932;2023-02-20T11:27:02;100346.81;;;15.30;67.81
10646;BME280;5371;49.782;9.932;2023-02-20T11:29:37;100335.38;;;15.82;66.40
10646;BME280;5371;49.782;9.932;2023-02-20T11:32:29;100325.25;;;16.49;63.39
10646;BME280;5371;49.782;9.932;2023-02-20T11:35:26;100324.50;;;15.36;66.80
10646;BME280;5371;49.782;9.932;2023-02-20T11:38:32;100321.78;;;15.38;63.92
10646;BME280;5371;49.782;9.932;2023-02-20T11:41:07;100314.72;;;16.25;62.72
10646;BME280;5371;49.782;9.932;2023-02-20T11:43:40;100310.53;;;13.46;74.55
10646;BME280;5371;49.782;9.932;2023-02-20T11:46:11;100317.00;;;15.05;67.35
10646;BME280;5371;49.782;9.932;2023-02-20T11:48:57;100316.41;;;15.77;63.93
10646;BME280;5371;49.782;9.932;2023-02-20T11:51:39;100316.53;;;13.91;69.05
10646;BME280;5371;49.782;9.932;2023-02-20T11:54:13;100305.00;;;15.77;63.50
10646;BME280;5371;49.782;9.932;2023-02-20T11:56:57;100300.16;;;15.32;65.04
10646;BME280;5371;49.782;9.932;2023-02-20T11:59:29;100303.69;;;16.07;61.51
10646;BME280;5371;49.782;9.932;2023-02-20T12:02:21;100304.84;;;14.09;71.67
10646;BME280;5371;49.782;9.932;2023-02-20T12:05:04;100288.50;;;14.72;66.90
10646;BME280;5371;49.782;9.932;2023-02-20T12:07:36;100286.66;;;14.99;68.92
10646;BME280;5371;49.782;9.932;2023-02-20T12:12:48;100267.53;;;15.48;65.05
10646;BME280;5371;49.782;9.932;2023-02-20T12:15:17;100266.28;;;16.26;62.54
10646;BME280;5371;49.782;9.932;2023-02-20T12:17:53;100277.78;;;16.01;62.48
10646;BME280;5371;49.782;9.932;2023-02-20T12:20:24;100274.34;;;16.12;60.68
10646;BME280;5371;49.782;9.932;2023-02-20T12:23:03;100266.81;;;15.95;59.98
10646;BME280;5371;49.782;9.932;2023-02-20T12:25:39;100256.53;;;16.03;58.65
10646;BME280;5371;49.782;9.932;2023-02-20T12:28:15;100258.56;;;15.38;59.43
10646;BME280;5371;49.782;9.932;2023-02-20T12:30:58;100260.56;;;15.34;61.50
10646;BME280;5371;49.782;9.932;2023-02-20T12:33:42;100256.53;;;13.97;67.85
10646;BME280;5371;49.782;9.932;2023-02-20T12:36:22;100254.97;;;15.13;62.01
10646;BME280;5371;49.782;9.932;2023-02-20T12:38:57;100244.56;;;13.08;68.63
10646;BME280;5371;49.782;9.932;2023-02-20T12:41:51;100254.88;;;13.82;66.30
10646;BME280;5371;49.782;9.932;2023-02-20T12:44:41;100262.88;;;13.24;69.41
10646;BME280;5371;49.782;9.932;2023-02-20T12:47:16;100254.53;;;13.17;70.33
10646;BME280;5371;49.782;9.932;2023-02-20T12:53:11;100241.47;;;13.01;71.47
10646;BME280;5371;49.782;9.932;2023-02-20T12:55:50;100235.53;;;13.28;70.33
10646;BME280;5371;49.782;9.932;2023-02-20T12:58:28;100231.53;;;12.92;71.37
10646;BME280;5371;49.782;9.932;2023-02-20T13:00:59;100217.41;;;13.09;70.99
10646;BME280;5371;49.782;9.932;2023-02-20T13:03:37;100224.59;;;12.91;73.07
10646;BME280;5371;49.782;9.932;2023-02-20T13:06:06;100225.91;;;13.12;71.64
10646;BME280;5371;49.782;9.932;2023-02-20T13:08:38;100210.22;;;13.27;71.76
10646;BME280;5371;49.782;9.932;2023-02-20T13:11:14;100206.22;;;13.48;70.79
10646;BME280;5371;49.782;9.932;2023-02-20T13:13:51;100206.22;;;13.62;69.79
10646;BME280;5371;49.782;9.932;2023-02-20T13:16:25;100203.47;;;13.37;70.01
10646;BME280;5371;49.782;9.932;2023-02-20T13:18:59;100207.56;;;13.55;70.13
10646;BME280;5371;49.782;9.932;2023-02-20T13:21:29;100201.81;;;12.92;71.55
10646;BME280;5371;49.782;9.932;2023-02-20T13:24:29;100192.56;;;13.00;71.67
10646;BME280;5371;49.782;9.932;2023-02-20T13:27:00;100183.88;;;13.28;69.43
10646;BME280;5371;49.782;9.932;2023-02-20T13:29:33;100182.03;;;13.57;69.80
10646;BME280;5371;49.782;9.932;2023-02-20T13:32:03;100187.63;;;13.79;67.36
10646;BME280;5371;49.782;9.932;2023-02-20T13:34:47;100183.13;;;13.67;69.44
10646;BME280;5371;49.782;9.932;2023-02-20T13:37:54;100177.91;;;13.53;68.76
10646;BME280;5371;49.782;9.932;2023-02-20T13:40:35;100169.47;;;13.48;69.91